Terminal Aerodrome Forecast
Issued by NWS

Home | Current Version | Previous Version | Graphics & Text | Print | Product List | Glossary On
Versions: 1 2 3 4 5 6 7 8 9 10 11 12 13 14
000
FTUS43 KGRB 210500
TAFMTW
TAF
KMTW 210520Z 2106/2206 00000KT P6SM OVC030
     FM210800 VRB03KT 5SM BR OVC025
     FM211200 17005KT 4SM -FZDZ BR OVC015
     FM211600 18012KT 5SM BR OVC015
     FM220100 15014KT 5SM -DZSN BR OVC018=

USA.gov is the U.S. government's official web portal to all federal, state and local government web resources and services.